createdAt,value
2022-09-04T00:02:01.956Z,16.29
2022-09-04T00:04:43.362Z,16.25
2022-09-04T00:07:24.558Z,16.20
2022-09-04T00:10:09.887Z,16.16
2022-09-04T00:12:51.683Z,16.14
2022-09-04T00:15:27.824Z,16.13
2022-09-04T00:18:07.226Z,16.15
2022-09-04T00:20:47.281Z,16.21
2022-09-04T00:23:23.124Z,16.28
2022-09-04T00:26:04.258Z,16.35
2022-09-04T00:28:39.948Z,16.42
2022-09-04T00:31:24.587Z,16.49
2022-09-04T00:34:10.098Z,16.54
2022-09-04T00:36:50.221Z,16.59
2022-09-04T00:39:30.132Z,16.62
2022-09-04T00:42:20.689Z,16.66
2022-09-04T00:45:05.462Z,16.60
2022-09-04T00:47:59.380Z,16.55
2022-09-04T00:51:04.667Z,16.58
2022-09-04T00:54:02.541Z,16.59
2022-09-04T00:56:59.103Z,16.57
2022-09-04T00:59:50.492Z,16.52
2022-09-04T01:02:32.718Z,16.50
2022-09-04T01:05:19.851Z,16.48
2022-09-04T01:07:56.927Z,16.47
2022-09-04T01:10:45.755Z,16.44
2022-09-04T01:13:26.836Z,16.39
2022-09-04T01:16:06.256Z,16.33
2022-09-04T01:18:49.387Z,16.24
2022-09-04T01:21:37.023Z,16.15
2022-09-04T01:24:32.981Z,16.09
2022-09-04T01:27:10.598Z,16.05
2022-09-04T01:29:50.587Z,16.05
2022-09-04T01:32:32.907Z,16.07
2022-09-04T01:35:13.888Z,16.11
2022-09-04T01:37:57.193Z,16.13
2022-09-04T01:40:39.648Z,16.17
2022-09-04T01:43:14.139Z,16.16
2022-09-04T01:46:22.708Z,16.10
2022-09-04T01:49:01.888Z,15.99
2022-09-04T01:51:41.387Z,15.96
2022-09-04T01:54:26.883Z,15.93
2022-09-04T01:57:11.884Z,15.87
2022-09-04T01:59:55.622Z,15.83
2022-09-04T02:02:34.645Z,15.80
2022-09-04T02:05:17.794Z,15.80
2022-09-04T02:07:55.727Z,15.79
2022-09-04T02:10:39.766Z,15.80
2022-09-04T02:13:22.483Z,15.82
2022-09-04T02:16:06.417Z,15.88
2022-09-04T02:18:45.614Z,15.94
2022-09-04T02:21:27.642Z,16.00
2022-09-04T02:24:14.531Z,16.06
2022-09-04T02:26:54.068Z,16.10
2022-09-04T02:29:35.150Z,16.10
2022-09-04T02:32:18.617Z,16.13
2022-09-04T02:34:57.092Z,16.16
2022-09-04T02:37:41.547Z,16.19
2022-09-04T02:40:22.147Z,16.20
2022-09-04T02:43:07.696Z,16.23
2022-09-04T02:45:47.143Z,16.26
2022-09-04T02:48:29.032Z,16.25
2022-09-04T02:51:14.879Z,16.26
2022-09-04T02:53:56.308Z,16.31
2022-09-04T02:56:39.422Z,16.36
2022-09-04T02:59:29.771Z,16.39
2022-09-04T03:02:05.026Z,16.42
2022-09-04T03:04:50.202Z,16.43
2022-09-04T03:07:31.838Z,16.44
2022-09-04T03:10:12.898Z,16.44
2022-09-04T03:12:51.833Z,16.40
2022-09-04T03:15:30.641Z,16.32
2022-09-04T03:18:08.556Z,16.26
2022-09-04T03:20:45.965Z,16.21
2022-09-04T03:23:22.849Z,16.14
2022-09-04T03:26:15.382Z,16.08
2022-09-04T03:29:02.315Z,16.01
2022-09-04T03:31:45.123Z,15.94
2022-09-04T03:34:28.286Z,15.91
2022-09-04T03:37:18.728Z,15.88
2022-09-04T03:40:02.718Z,15.88
2022-09-04T03:42:46.187Z,15.87
2022-09-04T03:45:28.916Z,15.87
2022-09-04T03:48:12.738Z,15.86
2022-09-04T03:50:58.312Z,15.83
2022-09-04T03:53:39.722Z,15.82
2022-09-04T03:56:43.531Z,15.80
2022-09-04T03:59:27.404Z,15.78
2022-09-04T04:02:08.165Z,15.76
2022-09-04T04:05:21.650Z,15.76
2022-09-04T04:08:06.164Z,15.76
2022-09-04T04:10:52.820Z,15.74
2022-09-04T04:13:45.579Z,15.71
2022-09-04T04:16:40.726Z,15.67
2022-09-04T04:19:32.101Z,15.68
2022-09-04T04:22:31.114Z,15.71
2022-09-04T04:25:16.707Z,15.73
2022-09-04T04:28:03.435Z,15.75
2022-09-04T04:30:49.782Z,15.78
2022-09-04T04:33:43.440Z,15.81
2022-09-04T04:36:29.488Z,15.83
2022-09-04T04:39:16.596Z,15.82
2022-09-04T04:42:07.667Z,15.83
2022-09-04T04:45:21.881Z,15.88
2022-09-04T04:48:24.636Z,15.93
2022-09-04T04:51:09.988Z,15.99
2022-09-04T04:53:51.078Z,16.07
2022-09-04T04:56:31.474Z,16.15
2022-09-04T04:59:19.309Z,16.19
2022-09-04T05:02:00.677Z,16.26
2022-09-04T05:04:43.372Z,16.31
2022-09-04T05:07:23.368Z,16.38
2022-09-04T05:10:03.003Z,16.43
2022-09-04T05:13:03.440Z,16.47
2022-09-04T05:16:05.019Z,16.49
2022-09-04T05:18:41.527Z,16.51
2022-09-04T05:21:24.100Z,16.54
2022-09-04T05:24:03.688Z,16.53
2022-09-04T05:26:45.171Z,16.46
2022-09-04T05:29:31.834Z,16.36
2022-09-04T05:32:23.842Z,16.29
2022-09-04T05:35:12.033Z,16.27
2022-09-04T05:37:52.427Z,16.24
2022-09-04T05:40:34.120Z,16.23
2022-09-04T05:43:17.213Z,16.27
2022-09-04T05:46:05.715Z,16.29
2022-09-04T05:48:44.332Z,16.29
2022-09-04T05:51:51.282Z,16.28
2022-09-04T05:54:44.262Z,16.33
2022-09-04T05:57:35.252Z,16.37
2022-09-04T06:00:13.915Z,16.39
2022-09-04T06:03:19.018Z,16.47
2022-09-04T06:06:22.936Z,16.53
2022-09-04T06:09:12.789Z,16.56
2022-09-04T06:12:03.148Z,16.59
2022-09-04T06:15:14.098Z,16.64
2022-09-04T06:18:01.412Z,16.69
2022-09-04T06:20:59.055Z,16.72
2022-09-04T06:23:47.823Z,16.74
2022-09-04T06:26:32.884Z,16.74
2022-09-04T06:29:43.304Z,16.79
2022-09-04T06:33:03.570Z,16.84
2022-09-04T06:35:51.585Z,16.89
2022-09-04T06:38:37.880Z,16.95
2022-09-04T06:41:15.800Z,16.98
2022-09-04T06:43:55.967Z,16.97
2022-09-04T06:46:39.060Z,16.91
2022-09-04T06:49:19.165Z,16.85
2022-09-04T06:52:03.320Z,16.80
2022-09-04T06:54:49.388Z,16.78
2022-09-04T06:57:46.835Z,16.82
2022-09-04T07:00:20.533Z,16.84
2022-09-04T07:03:22.888Z,16.86
2022-09-04T07:06:04.475Z,16.86
2022-09-04T07:08:51.884Z,16.84
2022-09-04T07:11:42.629Z,16.80
2022-09-04T07:14:35.975Z,16.78
2022-09-04T07:17:16.869Z,16.83
2022-09-04T07:20:18.655Z,16.88
2022-09-04T07:23:04.022Z,16.94
2022-09-04T07:25:46.271Z,17.05
2022-09-04T07:28:37.383Z,17.11
2022-09-04T07:31:15.059Z,17.21
2022-09-04T07:33:57.618Z,17.32
2022-09-04T07:36:39.724Z,17.35
2022-09-04T07:39:22.195Z,17.25
2022-09-04T07:42:02.921Z,17.19
2022-09-04T07:44:42.611Z,17.18
2022-09-04T07:47:19.927Z,17.20
2022-09-04T07:50:00.620Z,17.29
2022-09-04T07:53:03.641Z,17.32
2022-09-04T07:55:42.727Z,17.34
2022-09-04T07:58:44.991Z,17.38
2022-09-04T08:01:40.479Z,17.48
2022-09-04T08:04:40.476Z,17.59
2022-09-04T08:07:21.021Z,17.73
2022-09-04T08:10:11.974Z,17.83
2022-09-04T08:13:07.230Z,17.95
2022-09-04T08:15:46.268Z,18.07
2022-09-04T08:18:43.396Z,18.14
2022-09-04T08:21:23.534Z,18.18
2022-09-04T08:24:29.704Z,18.15
2022-09-04T08:27:20.295Z,18.28
2022-09-04T08:30:04.742Z,18.41
2022-09-04T08:33:00.481Z,18.49
2022-09-04T08:35:36.389Z,18.48
2022-09-04T08:38:35.837Z,18.41
2022-09-04T08:41:36.808Z,18.38
2022-09-04T08:44:40.074Z,18.44
2022-09-04T08:47:37.372Z,18.55
2022-09-04T08:50:34.471Z,18.71
2022-09-04T08:53:36.780Z,18.81
2022-09-04T08:56:20.622Z,18.94
2022-09-04T08:59:41.179Z,19.11
2022-09-04T09:03:16.251Z,19.33
2022-09-04T09:06:24.568Z,19.49
2022-09-04T09:09:32.884Z,19.45
2022-09-04T09:12:42.661Z,19.62
2022-09-04T09:15:46.877Z,19.80
2022-09-04T09:18:40.722Z,19.96
2022-09-04T09:21:26.337Z,20.04
2022-09-04T09:24:34.420Z,20.08
2022-09-04T09:27:25.210Z,20.21
2022-09-04T09:30:09.259Z,20.51
2022-09-04T09:33:16.667Z,20.81
2022-09-04T09:36:32.666Z,21.08
2022-09-04T09:39:43.370Z,21.30
2022-09-04T09:42:48.800Z,21.52
2022-09-04T09:45:42.220Z,21.58
2022-09-04T09:48:59.535Z,21.68
2022-09-04T09:51:52.390Z,21.86
2022-09-04T09:55:00.399Z,21.88
2022-09-04T09:58:09.219Z,21.75
2022-09-04T10:00:53.660Z,21.83
2022-09-04T10:03:59.478Z,22.22
2022-09-04T10:07:01.647Z,22.73
2022-09-04T10:10:03.570Z,23.13
2022-09-04T10:13:20.242Z,23.19
2022-09-04T10:16:24.814Z,23.27
2022-09-04T10:19:25.007Z,23.21
2022-09-04T10:22:38.751Z,22.94
2022-09-04T10:25:38.348Z,22.51
2022-09-04T10:28:47.582Z,22.32
2022-09-04T10:31:48.063Z,22.29
2022-09-04T10:34:39.088Z,22.14
2022-09-04T10:37:31.017Z,22.05
2022-09-04T10:40:43.926Z,21.97
2022-09-04T10:43:47.055Z,21.96
2022-09-04T10:46:26.364Z,21.92
2022-09-04T10:49:30.489Z,21.90
2022-09-04T10:52:25.614Z,22.00
2022-09-04T10:55:22.143Z,21.99
2022-09-04T10:58:26.571Z,22.01
2022-09-04T11:01:20.299Z,22.02
2022-09-04T11:04:14.024Z,22.03
2022-09-04T11:07:04.367Z,21.91
2022-09-04T11:10:04.463Z,21.65
2022-09-04T11:13:09.736Z,21.38
2022-09-04T11:16:00.368Z,21.20
2022-09-04T11:19:13.783Z,21.28
2022-09-04T11:22:34.638Z,21.43
2022-09-04T11:25:50.431Z,21.46
2022-09-04T11:28:47.473Z,21.30
2022-09-04T11:31:36.340Z,21.22
2022-09-04T11:34:43.771Z,21.16
2022-09-04T11:37:40.619Z,21.20
2022-09-04T11:40:36.847Z,21.21
2022-09-04T11:43:39.776Z,21.22
2022-09-04T11:46:34.473Z,21.27
2022-09-04T11:49:28.246Z,21.27
2022-09-04T11:52:24.148Z,21.34
2022-09-04T11:55:40.880Z,21.42
2022-09-04T11:58:36.536Z,21.45
2022-09-04T12:01:25.728Z,21.32
2022-09-04T12:04:26.175Z,21.19
2022-09-04T12:07:17.545Z,21.12
2022-09-04T12:10:09.265Z,21.17
2022-09-04T12:13:15.662Z,21.23
2022-09-04T12:16:12.890Z,21.38
2022-09-04T12:19:05.219Z,21.43
2022-09-04T12:22:06.042Z,21.48
2022-09-04T12:25:13.007Z,21.55
2022-09-04T12:28:18.775Z,21.63
2022-09-04T12:31:06.849Z,21.74
2022-09-04T12:34:11.797Z,21.82
2022-09-04T12:37:06.360Z,21.90
2022-09-04T12:40:02.615Z,21.95
2022-09-04T12:42:44.944Z,21.98
2022-09-04T12:45:26.700Z,21.99
2022-09-04T12:48:11.344Z,21.91
2022-09-04T12:50:52.996Z,21.91
2022-09-04T12:53:45.010Z,21.96
2022-09-04T12:56:28.007Z,22.01
2022-09-04T12:59:19.060Z,22.01
2022-09-04T13:02:01.950Z,21.92
2022-09-04T13:04:40.007Z,21.93
2022-09-04T13:07:29.480Z,21.97
2022-09-04T13:10:13.535Z,21.99
2022-09-04T13:12:55.327Z,22.03
2022-09-04T13:15:39.636Z,22.01
2022-09-04T13:18:31.731Z,21.98
2022-09-04T13:21:15.305Z,22.03
2022-09-04T13:24:03.700Z,22.04
2022-09-04T13:26:52.479Z,22.04
2022-09-04T13:29:36.336Z,21.91
2022-09-04T13:32:34.754Z,21.84
2022-09-04T13:35:22.431Z,21.85
2022-09-04T13:38:10.443Z,21.92
2022-09-04T13:41:05.081Z,21.98
2022-09-04T13:44:11.687Z,22.04
2022-09-04T13:46:49.853Z,22.06
2022-09-04T13:49:30.303Z,22.11
2022-09-04T13:52:10.038Z,22.17
2022-09-04T13:54:46.800Z,22.22
2022-09-04T13:57:21.885Z,22.26
2022-09-04T13:59:55.573Z,22.26
2022-09-04T14:02:31.934Z,22.28
2022-09-04T14:05:10.839Z,22.27
2022-09-04T14:07:46.286Z,22.24
2022-09-04T14:10:22.034Z,22.22
2022-09-04T14:13:05.670Z,22.23
2022-09-04T14:15:58.299Z,22.20
2022-09-04T14:18:46.871Z,22.15
2022-09-04T14:21:30.611Z,22.14
2022-09-04T14:24:11.392Z,22.12
2022-09-04T14:26:56.551Z,22.10
2022-09-04T14:29:37.736Z,22.08
2022-09-04T14:32:23.823Z,22.06
2022-09-04T14:35:08.603Z,22.04
2022-09-04T14:38:00.376Z,21.99
2022-09-04T14:40:34.426Z,21.94
2022-09-04T14:43:15.047Z,21.93
2022-09-04T14:46:06.932Z,21.92
2022-09-04T14:48:44.635Z,21.92
2022-09-04T14:51:34.293Z,21.87
2022-09-04T14:54:08.498Z,21.84
2022-09-04T14:56:47.044Z,21.80
2022-09-04T14:59:27.903Z,21.77
2022-09-04T15:02:16.845Z,21.74
2022-09-04T15:04:54.028Z,21.69
2022-09-04T15:07:49.598Z,21.68
2022-09-04T15:10:27.094Z,21.63
2022-09-04T15:13:31.416Z,21.59
2022-09-04T15:16:22.467Z,21.58
2022-09-04T15:19:13.012Z,21.58
2022-09-04T15:21:52.531Z,21.57
2022-09-04T15:24:33.988Z,21.53
2022-09-04T15:27:16.450Z,21.52
2022-09-04T15:30:03.432Z,21.49
2022-09-04T15:32:41.924Z,21.49
2022-09-04T15:35:23.265Z,21.49
2022-09-04T15:38:11.406Z,21.48
2022-09-04T15:41:15.117Z,21.46
2022-09-04T15:43:48.085Z,21.44
2022-09-04T15:46:35.822Z,21.44
2022-09-04T15:49:21.815Z,21.41
2022-09-04T15:51:56.221Z,21.38
2022-09-04T15:54:53.679Z,21.37
2022-09-04T15:57:36.221Z,21.36
2022-09-04T16:00:14.624Z,21.34
2022-09-04T16:02:54.861Z,21.33
2022-09-04T16:05:37.798Z,21.31
2022-09-04T16:08:21.684Z,21.28
2022-09-04T16:11:00.549Z,21.27
2022-09-04T16:13:46.718Z,21.25
2022-09-04T16:16:23.639Z,21.21
2022-09-04T16:19:07.698Z,21.21
2022-09-04T16:21:49.903Z,21.19
2022-09-04T16:24:29.853Z,21.19
2022-09-04T16:27:06.579Z,21.18
2022-09-04T16:29:42.360Z,21.17
2022-09-04T16:32:21.070Z,21.15
2022-09-04T16:34:57.459Z,21.09
2022-09-04T16:37:37.837Z,21.08
2022-09-04T16:40:30.883Z,21.04
2022-09-04T16:43:18.688Z,21.01
2022-09-04T16:45:58.619Z,20.98
2022-09-04T16:48:37.102Z,20.94
2022-09-04T16:51:40.530Z,20.90
2022-09-04T16:54:18.351Z,20.84
2022-09-04T16:57:12.651Z,20.80
2022-09-04T16:59:50.658Z,20.77
2022-09-04T17:02:35.901Z,20.74
2022-09-04T17:05:28.410Z,20.71
2022-09-04T17:08:10.369Z,20.68
2022-09-04T17:10:51.060Z,20.65
2022-09-04T17:13:29.839Z,20.64
2022-09-04T17:16:08.982Z,20.61
2022-09-04T17:18:50.544Z,20.58
2022-09-04T17:26:41.166Z,20.56
2022-09-04T17:29:07.541Z,20.49
2022-09-04T17:29:18.962Z,20.52
2022-09-04T17:30:56.139Z,20.48
2022-09-04T17:37:13.365Z,20.48
2022-09-04T17:40:36.080Z,20.44
2022-09-04T17:40:54.604Z,20.36
2022-09-04T17:42:37.992Z,20.37
2022-09-04T17:45:22.454Z,20.37
2022-09-04T17:48:07.500Z,20.38
2022-09-04T17:50:54.248Z,20.37
2022-09-04T17:53:34.407Z,20.37
2022-09-04T17:56:14.686Z,20.35
2022-09-04T17:58:54.526Z,20.34
2022-09-04T18:01:31.452Z,20.33
2022-09-04T18:04:27.449Z,20.30
2022-09-04T18:07:33.581Z,20.28
2022-09-04T18:10:10.484Z,20.26
2022-09-04T18:12:48.079Z,20.24
2022-09-04T18:15:35.004Z,20.23
2022-09-04T18:18:18.280Z,20.21
2022-09-04T18:20:56.065Z,20.18
2022-09-04T18:23:51.556Z,20.16
2022-09-04T18:26:40.452Z,20.15
2022-09-04T18:31:04.551Z,20.14
2022-09-04T18:37:10.010Z,20.13
2022-09-04T18:37:19.633Z,20.09
2022-09-04T18:39:08.849Z,20.08
2022-09-04T18:50:20.883Z,20.07
2022-09-04T18:50:28.033Z,20.03
2022-09-04T18:50:34.631Z,20.07
2022-09-04T18:51:19.489Z,20.06
2022-09-04T18:53:55.533Z,20.03
2022-09-04T18:56:33.172Z,19.99
2022-09-04T18:59:12.851Z,19.95
2022-09-04T19:01:49.059Z,19.91
2022-09-04T19:04:44.628Z,19.87
2022-09-04T19:07:32.041Z,19.84
2022-09-04T19:10:25.755Z,19.82
2022-09-04T19:13:05.074Z,19.78
2022-09-04T19:15:57.419Z,19.76
2022-09-04T19:18:43.955Z,19.73
2022-09-04T19:21:33.878Z,19.71
2022-09-04T19:24:31.360Z,19.68
2022-09-04T19:27:20.525Z,19.66
2022-09-04T19:30:18.393Z,19.62
2022-09-04T19:33:10.847Z,19.58
2022-09-04T19:35:50.888Z,19.55
2022-09-04T19:43:46.697Z,19.51
2022-09-04T19:45:56.434Z,19.46
2022-09-04T19:46:11.432Z,19.42
2022-09-04T19:47:37.332Z,19.40
2022-09-04T19:53:19.336Z,19.37
2022-09-04T19:53:39.087Z,19.35
2022-09-04T19:56:22.487Z,19.34
2022-09-04T19:58:57.953Z,19.33
2022-09-04T20:01:40.424Z,19.28
2022-09-04T20:04:30.382Z,19.26
2022-09-04T20:07:06.033Z,19.21
2022-09-04T20:09:38.267Z,19.18
2022-09-04T20:12:20.723Z,19.15
2022-09-04T20:14:57.400Z,19.13
2022-09-04T20:17:46.486Z,19.12
2022-09-04T20:20:23.927Z,19.10
2022-09-04T20:23:01.461Z,19.08
2022-09-04T20:25:46.641Z,19.05
2022-09-04T20:28:27.522Z,19.03
2022-09-04T20:31:35.652Z,18.94
2022-09-04T20:34:21.991Z,18.88
2022-09-04T20:37:00.346Z,18.80
2022-09-04T20:39:43.790Z,18.73
2022-09-04T20:42:25.892Z,18.67
2022-09-04T20:46:32.932Z,18.60
2022-09-04T20:52:43.213Z,18.52
2022-09-04T20:52:57.009Z,18.46
2022-09-04T20:54:07.405Z,18.39
2022-09-04T21:00:02.692Z,18.32
2022-09-04T21:03:10.709Z,18.24
2022-09-04T21:03:25.506Z,18.19
2022-09-04T21:06:22.772Z,18.14
2022-09-04T21:09:11.915Z,18.10
2022-09-04T21:11:47.396Z,18.06
2022-09-04T21:14:26.877Z,18.01
2022-09-04T21:17:35.042Z,17.94
2022-09-04T21:20:35.986Z,17.83
2022-09-04T21:24:10.283Z,17.74
2022-09-04T21:27:08.984Z,17.70
2022-09-04T21:29:53.226Z,17.67
2022-09-04T21:32:40.920Z,17.63
2022-09-04T21:35:21.416Z,17.62
2022-09-04T21:38:06.047Z,17.60
2022-09-04T21:41:01.423Z,17.60
2022-09-04T21:43:59.863Z,17.57
2022-09-04T21:47:08.393Z,17.56
2022-09-04T21:50:26.054Z,17.56
2022-09-04T21:53:34.059Z,17.53
2022-09-04T22:02:30.400Z,17.52
2022-09-04T22:02:43.613Z,17.50
2022-09-04T22:03:01.429Z,17.46
2022-09-04T22:05:47.446Z,17.45
2022-09-04T22:13:27.105Z,17.45
2022-09-04T22:13:43.868Z,17.45
2022-09-04T22:14:37.671Z,17.46
2022-09-04T22:17:24.586Z,17.46
2022-09-04T22:20:28.028Z,17.48
2022-09-04T22:23:37.891Z,17.47
2022-09-04T22:26:39.024Z,17.47
2022-09-04T22:29:39.625Z,17.48
2022-09-04T22:32:39.939Z,17.47
2022-09-04T22:35:41.964Z,17.45
2022-09-04T22:38:45.883Z,17.43
2022-09-04T22:41:45.004Z,17.38
2022-09-04T22:44:31.716Z,17.34
2022-09-04T22:47:31.499Z,17.35
2022-09-04T22:50:50.375Z,17.34
2022-09-04T22:53:53.507Z,17.30
2022-09-04T22:56:41.433Z,17.28
2022-09-04T22:59:40.044Z,17.27
2022-09-04T23:03:06.480Z,17.24
2022-09-04T23:05:42.000Z,17.22
2022-09-04T23:13:49.171Z,17.19
2022-09-04T23:13:57.316Z,17.16
2022-09-04T23:14:54.532Z,17.14
2022-09-04T23:21:36.045Z,17.12
2022-09-04T23:26:34.573Z,17.09
2022-09-04T23:26:47.005Z,17.01
2022-09-04T23:27:46.757Z,16.99
2022-09-04T23:30:25.197Z,16.97
2022-09-04T23:33:43.034Z,16.97
2022-09-04T23:36:59.112Z,16.97
2022-09-04T23:40:12.154Z,16.96
2022-09-04T23:43:42.405Z,16.96
2022-09-04T23:46:53.531Z,16.95
2022-09-04T23:49:59.331Z,16.95
2022-09-04T23:53:04.039Z,16.94
2022-09-04T23:56:06.989Z,16.95
2022-09-04T23:59:37.458Z,16.97
